sensor_id;sensor_type;location;lat;lon;timestamp;pressure;altitude;pressure_sealevel;temperature
19061;BMP280;9663;48.996;8.334;2023-05-07T00:00:37;100104.81;;;20.44
19061;BMP280;9663;48.996;8.334;2023-05-07T00:03:03;100097.94;;;20.44
19061;BMP280;9663;48.996;8.334;2023-05-07T00:05:29;100097.06;;;20.44
19061;BMP280;9663;48.996;8.334;2023-05-07T00:07:55;100098.69;;;20.46
19061;BMP280;9663;48.996;8.334;2023-05-07T00:10:20;100098.69;;;20.46
19061;BMP280;9663;48.996;8.334;2023-05-07T00:12:46;100103.69;;;20.49
19061;BMP280;9663;48.996;8.334;2023-05-07T00:15:12;100099.38;;;20.50
19061;BMP280;9663;48.996;8.334;2023-05-07T00:17:38;100086.44;;;20.51
19061;BMP280;9663;48.996;8.334;2023-05-07T00:20:05;100087.25;;;20.52
19061;BMP280;9663;48.996;8.334;2023-05-07T00:22:31;100091.44;;;20.54
19061;BMP280;9663;48.996;8.334;2023-05-07T00:24:58;100088.06;;;20.52
19061;BMP280;9663;48.996;8.334;2023-05-07T00:27:24;100085.38;;;20.55
19061;BMP280;9663;48.996;8.334;2023-05-07T00:29:50;100095.66;;;20.55
19061;BMP280;9663;48.996;8.334;2023-05-07T00:32:16;100090.72;;;20.51
19061;BMP280;9663;48.996;8.334;2023-05-07T00:34:43;100095.13;;;20.49
19061;BMP280;9663;48.996;8.334;2023-05-07T00:37:09;100093.59;;;20.45
19061;BMP280;9663;48.996;8.334;2023-05-07T00:39:35;100092.00;;;20.42
19061;BMP280;9663;48.996;8.334;2023-05-07T00:42:01;100071.56;;;20.39
19061;BMP280;9663;48.996;8.334;2023-05-07T00:44:28;100076.84;;;20.36
19061;BMP280;9663;48.996;8.334;2023-05-07T00:46:57;100076.91;;;20.35
19061;BMP280;9663;48.996;8.334;2023-05-07T00:49:37;100088.34;;;20.29
19061;BMP280;9663;48.996;8.334;2023-05-07T00:52:06;100078.94;;;20.28
19061;BMP280;9663;48.996;8.334;2023-05-07T00:54:33;100089.38;;;20.25
19061;BMP280;9663;48.996;8.334;2023-05-07T00:56:59;100079.19;;;20.22
19061;BMP280;9663;48.996;8.334;2023-05-07T00:59:26;100086.16;;;20.20
19061;BMP280;9663;48.996;8.334;2023-05-07T01:01:52;100089.78;;;20.16
19061;BMP280;9663;48.996;8.334;2023-05-07T01:04:17;100093.31;;;20.14
19061;BMP280;9663;48.996;8.334;2023-05-07T01:06:45;100085.66;;;20.13
19061;BMP280;9663;48.996;8.334;2023-05-07T01:09:12;100086.44;;;20.14
19061;BMP280;9663;48.996;8.334;2023-05-07T01:11:39;100090.06;;;20.11
19061;BMP280;9663;48.996;8.334;2023-05-07T01:14:06;100077.25;;;20.09
19061;BMP280;9663;48.996;8.334;2023-05-07T01:16:32;100077.31;;;20.08
19061;BMP280;9663;48.996;8.334;2023-05-07T01:18:58;100074.88;;;20.05
19061;BMP280;9663;48.996;8.334;2023-05-07T01:21:26;100079.88;;;20.08
19061;BMP280;9663;48.996;8.334;2023-05-07T01:23:53;100075.72;;;20.05
19061;BMP280;9663;48.996;8.334;2023-05-07T01:26:20;100078.38;;;20.04
19061;BMP280;9663;48.996;8.334;2023-05-07T01:28:47;100081.78;;;20.04
19061;BMP280;9663;48.996;8.334;2023-05-07T01:31:14;100079.31;;;20.01
19061;BMP280;9663;48.996;8.334;2023-05-07T01:33:43;100086.34;;;19.98
19061;BMP280;9663;48.996;8.334;2023-05-07T01:36:12;100082.97;;;19.97
19061;BMP280;9663;48.996;8.334;2023-05-07T01:38:40;100080.50;;;19.94
19061;BMP280;9663;48.996;8.334;2023-05-07T01:41:07;100071.09;;;19.93
19061;BMP280;9663;48.996;8.334;2023-05-07T01:43:33;100074.66;;;19.91
19061;BMP280;9663;48.996;8.334;2023-05-07T01:46:01;100081.56;;;19.90
19061;BMP280;9663;48.996;8.334;2023-05-07T01:48:27;100077.38;;;19.88
19061;BMP280;9663;48.996;8.334;2023-05-07T01:50:55;100087.78;;;19.85
19061;BMP280;9663;48.996;8.334;2023-05-07T01:53:20;100078.53;;;19.81
19061;BMP280;9663;48.996;8.334;2023-05-07T01:55:47;100082.91;;;19.79
19061;BMP280;9663;48.996;8.334;2023-05-07T01:58:12;100089.88;;;19.77
19061;BMP280;9663;48.996;8.334;2023-05-07T02:00:39;100074.56;;;19.74
19061;BMP280;9663;48.996;8.334;2023-05-07T02:03:05;100079.69;;;19.74
19061;BMP280;9663;48.996;8.334;2023-05-07T02:05:31;100074.69;;;19.71
19061;BMP280;9663;48.996;8.334;2023-05-07T02:07:56;100073.78;;;19.72
19061;BMP280;9663;48.996;8.334;2023-05-07T02:10:22;100074.88;;;19.67
19061;BMP280;9663;48.996;8.334;2023-05-07T02:12:48;100075.78;;;19.66
19061;BMP280;9663;48.996;8.334;2023-05-07T02:15:13;100087.03;;;19.63
19061;BMP280;9663;48.996;8.334;2023-05-07T02:18:07;100095.94;;;19.56
19061;BMP280;9663;48.996;8.334;2023-05-07T02:20:34;100096.06;;;19.53
19061;BMP280;9663;48.996;8.334;2023-05-07T02:23:00;100090.91;;;19.53
19061;BMP280;9663;48.996;8.334;2023-05-07T02:25:26;100093.59;;;19.50
19061;BMP280;9663;48.996;8.334;2023-05-07T02:27:52;100087.69;;;19.48
19061;BMP280;9663;48.996;8.334;2023-05-07T02:30:17;100093.88;;;19.44
19061;BMP280;9663;48.996;8.334;2023-05-07T02:32:43;100096.47;;;19.44
19061;BMP280;9663;48.996;8.334;2023-05-07T02:35:09;100088.88;;;19.41
19061;BMP280;9663;48.996;8.334;2023-05-07T02:37:35;100090.72;;;19.38
19061;BMP280;9663;48.996;8.334;2023-05-07T02:40:00;100084.72;;;19.37
19061;BMP280;9663;48.996;8.334;2023-05-07T02:42:26;100086.53;;;19.35
19061;BMP280;9663;48.996;8.334;2023-05-07T02:44:52;100090.03;;;19.34
19061;BMP280;9663;48.996;8.334;2023-05-07T02:47:18;100081.47;;;19.34
19061;BMP280;9663;48.996;8.334;2023-05-07T02:49:44;100076.38;;;19.32
19061;BMP280;9663;48.996;8.334;2023-05-07T02:52:09;100077.41;;;19.28
19061;BMP280;9663;48.996;8.334;2023-05-07T02:54:35;100075.66;;;19.29
19061;BMP280;9663;48.996;8.334;2023-05-07T02:57:01;100068.88;;;19.28
19061;BMP280;9663;48.996;8.334;2023-05-07T02:59:27;100071.44;;;19.28
19061;BMP280;9663;48.996;8.334;2023-05-07T03:01:53;100066.38;;;19.27
19061;BMP280;9663;48.996;8.334;2023-05-07T03:04:18;100067.19;;;19.27
19061;BMP280;9663;48.996;8.334;2023-05-07T03:06:44;100063.03;;;19.25
19061;BMP280;9663;48.996;8.334;2023-05-07T03:09:10;100068.16;;;19.25
19061;BMP280;9663;48.996;8.334;2023-05-07T03:11:36;100066.50;;;19.24
19061;BMP280;9663;48.996;8.334;2023-05-07T03:14:02;100058.91;;;19.21
19061;BMP280;9663;48.996;8.334;2023-05-07T03:16:28;100070.09;;;19.20
19061;BMP280;9663;48.996;8.334;2023-05-07T03:18:53;100059.19;;;19.15
19061;BMP280;9663;48.996;8.334;2023-05-07T03:21:19;100065.19;;;19.14
19061;BMP280;9663;48.996;8.334;2023-05-07T03:23:45;100056.91;;;19.07
19061;BMP280;9663;48.996;8.334;2023-05-07T03:26:11;100057.84;;;19.05
19061;BMP280;9663;48.996;8.334;2023-05-07T03:28:37;100067.31;;;19.04
19061;BMP280;9663;48.996;8.334;2023-05-07T03:31:02;100073.22;;;19.06
19061;BMP280;9663;48.996;8.334;2023-05-07T03:33:28;100069.94;;;19.03
19061;BMP280;9663;48.996;8.334;2023-05-07T03:35:54;100065.78;;;18.99
19061;BMP280;9663;48.996;8.334;2023-05-07T03:38:20;100061.59;;;18.96
19061;BMP280;9663;48.996;8.334;2023-05-07T03:40:45;100065.16;;;18.94
19061;BMP280;9663;48.996;8.334;2023-05-07T03:43:11;100066.03;;;18.93
19061;BMP280;9663;48.996;8.334;2023-05-07T03:45:37;100065.34;;;18.89
19061;BMP280;9663;48.996;8.334;2023-05-07T03:48:03;100076.44;;;18.90
19061;BMP280;9663;48.996;8.334;2023-05-07T03:50:29;100078.22;;;18.88
19061;BMP280;9663;48.996;8.334;2023-05-07T03:52:54;100071.56;;;18.84
19061;BMP280;9663;48.996;8.334;2023-05-07T03:55:20;100071.56;;;18.84
19061;BMP280;9663;48.996;8.334;2023-05-07T03:57:46;100077.69;;;18.80
19061;BMP280;9663;48.996;8.334;2023-05-07T04:00:12;100073.47;;;18.79
19061;BMP280;9663;48.996;8.334;2023-05-07T04:02:38;100091.41;;;18.81
19061;BMP280;9663;48.996;8.334;2023-05-07T04:05:04;100082.91;;;18.79
19061;BMP280;9663;48.996;8.334;2023-05-07T04:07:30;100094.03;;;18.79
19061;BMP280;9663;48.996;8.334;2023-05-07T04:09:56;100088.13;;;18.77
19061;BMP280;9663;48.996;8.334;2023-05-07T04:12:22;100088.94;;;18.78
19061;BMP280;9663;48.996;8.334;2023-05-07T04:14:47;100097.47;;;18.78
19061;BMP280;9663;48.996;8.334;2023-05-07T04:17:13;100095.69;;;18.80
19061;BMP280;9663;48.996;8.334;2023-05-07T04:19:39;100094.03;;;18.79
19061;BMP280;9663;48.996;8.334;2023-05-07T04:22:04;100090.44;;;18.83
19061;BMP280;9663;48.996;8.334;2023-05-07T04:24:33;100097.19;;;18.85
19061;BMP280;9663;48.996;8.334;2023-05-07T04:26:59;100094.63;;;18.85
19061;BMP280;9663;48.996;8.334;2023-05-07T04:29:25;100102.22;;;18.88
19061;BMP280;9663;48.996;8.334;2023-05-07T04:31:50;100096.06;;;18.92
19061;BMP280;9663;48.996;8.334;2023-05-07T04:34:16;100089.94;;;18.95
19061;BMP280;9663;48.996;8.334;2023-05-07T04:36:42;100095.69;;;19.01
19061;BMP280;9663;48.996;8.334;2023-05-07T04:39:07;100098.16;;;19.04
19061;BMP280;9663;48.996;8.334;2023-05-07T04:41:35;100097.97;;;19.09
19061;BMP280;9663;48.996;8.334;2023-05-07T04:44:01;100099.63;;;19.10
19061;BMP280;9663;48.996;8.334;2023-05-07T04:46:30;100102.00;;;19.14
19061;BMP280;9663;48.996;8.334;2023-05-07T04:48:55;100105.16;;;19.21
19061;BMP280;9663;48.996;8.334;2023-05-07T04:51:21;100098.16;;;19.24
19061;BMP280;9663;48.996;8.334;2023-05-07T04:53:48;100103.84;;;19.32
19061;BMP280;9663;48.996;8.334;2023-05-07T04:56:14;100113.81;;;19.39
19061;BMP280;9663;48.996;8.334;2023-05-07T04:58:40;100110.19;;;19.43
19061;BMP280;9663;48.996;8.334;2023-05-07T05:01:05;100116.06;;;19.47
19061;BMP280;9663;48.996;8.334;2023-05-07T05:03:31;100117.50;;;19.52
19061;BMP280;9663;48.996;8.334;2023-05-07T05:05:57;100119.13;;;19.55
19061;BMP280;9663;48.996;8.334;2023-05-07T05:08:25;100108.84;;;19.55
19061;BMP280;9663;48.996;8.334;2023-05-07T05:10:51;100121.38;;;19.62
19061;BMP280;9663;48.996;8.334;2023-05-07T05:13:16;100125.44;;;19.68
19061;BMP280;9663;48.996;8.334;2023-05-07T05:15:43;100118.41;;;19.71
19061;BMP280;9663;48.996;8.334;2023-05-07T05:18:08;100124.06;;;19.79
19061;BMP280;9663;48.996;8.334;2023-05-07T05:20:34;100121.19;;;19.86
19061;BMP280;9663;48.996;8.334;2023-05-07T05:23:00;100129.41;;;19.94
19061;BMP280;9663;48.996;8.334;2023-05-07T05:25:25;100127.28;;;20.04
19061;BMP280;9663;48.996;8.334;2023-05-07T05:27:51;100126.16;;;20.09
19061;BMP280;9663;48.996;8.334;2023-05-07T05:30:17;100128.53;;;20.13
19061;BMP280;9663;48.996;8.334;2023-05-07T05:32:42;100124.78;;;20.20
19061;BMP280;9663;48.996;8.334;2023-05-07T05:35:08;100124.47;;;20.28
19061;BMP280;9663;48.996;8.334;2023-05-07T05:37:34;100131.81;;;20.35
19061;BMP280;9663;48.996;8.334;2023-05-07T05:39:59;100134.00;;;20.44
19061;BMP280;9663;48.996;8.334;2023-05-07T05:42:25;100127.66;;;20.51
19061;BMP280;9663;48.996;8.334;2023-05-07T05:44:51;100135.00;;;20.58
19061;BMP280;9663;48.996;8.334;2023-05-07T05:47:16;100137.28;;;20.66
19061;BMP280;9663;48.996;8.334;2023-05-07T05:49:42;100133.56;;;20.71
19061;BMP280;9663;48.996;8.334;2023-05-07T05:52:09;100136.69;;;20.78
19061;BMP280;9663;48.996;8.334;2023-05-07T05:54:35;100137.09;;;20.87
19061;BMP280;9663;48.996;8.334;2023-05-07T05:57:01;100141.75;;;20.98
19061;BMP280;9663;48.996;8.334;2023-05-07T05:59:29;100139.69;;;21.04
19061;BMP280;9663;48.996;8.334;2023-05-07T06:01:55;100140.25;;;21.10
19061;BMP280;9663;48.996;8.334;2023-05-07T06:04:21;100140.66;;;21.20
19061;BMP280;9663;48.996;8.334;2023-05-07T06:06:46;100132.44;;;21.29
19061;BMP280;9663;48.996;8.334;2023-05-07T06:09:12;100138.06;;;21.37
19061;BMP280;9663;48.996;8.334;2023-05-07T06:11:38;100115.41;;;21.43
19061;BMP280;9663;48.996;8.334;2023-05-07T06:14:03;100123.47;;;21.54
19061;BMP280;9663;48.996;8.334;2023-05-07T06:16:29;100122.06;;;21.64
19061;BMP280;9663;48.996;8.334;2023-05-07T06:18:55;100116.28;;;21.76
19061;BMP280;9663;48.996;8.334;2023-05-07T06:21:21;100118.31;;;21.86
19061;BMP280;9663;48.996;8.334;2023-05-07T06:23:46;100112.50;;;21.98
19061;BMP280;9663;48.996;8.334;2023-05-07T06:26:12;100109.53;;;22.05
19061;BMP280;9663;48.996;8.334;2023-05-07T06:28:38;100113.22;;;22.17
19061;BMP280;9663;48.996;8.334;2023-05-07T06:31:18;100128.09;;;22.29
19061;BMP280;9663;48.996;8.334;2023-05-07T06:33:49;100140.41;;;22.39
19061;BMP280;9663;48.996;8.334;2023-05-07T06:36:15;100152.94;;;22.46
19061;BMP280;9663;48.996;8.334;2023-05-07T06:38:41;100151.59;;;22.55
19061;BMP280;9663;48.996;8.334;2023-05-07T06:41:07;100147.53;;;22.66
19061;BMP280;9663;48.996;8.334;2023-05-07T06:43:33;100145.19;;;22.77
19061;BMP280;9663;48.996;8.334;2023-05-07T06:45:59;100148.09;;;22.86
19061;BMP280;9663;48.996;8.334;2023-05-07T06:48:24;100139.13;;;22.93
19061;BMP280;9663;48.996;8.334;2023-05-07T06:50:50;100142.22;;;23.00
19061;BMP280;9663;48.996;8.334;2023-05-07T06:53:16;100136.75;;;23.04
19061;BMP280;9663;48.996;8.334;2023-05-07T06:55:41;100140.69;;;23.11
19061;BMP280;9663;48.996;8.334;2023-05-07T06:58:07;100136.53;;;23.22
19061;BMP280;9663;48.996;8.334;2023-05-07T07:00:33;100138.38;;;23.36
19061;BMP280;9663;48.996;8.334;2023-05-07T07:02:58;100135.63;;;23.53
19061;BMP280;9663;48.996;8.334;2023-05-07T07:05:26;100127.91;;;23.66
19061;BMP280;9663;48.996;8.334;2023-05-07T07:07:51;100125.53;;;23.77
19061;BMP280;9663;48.996;8.334;2023-05-07T07:10:20;100129.03;;;23.90
19061;BMP280;9663;48.996;8.334;2023-05-07T07:12:46;100133.75;;;23.98
19061;BMP280;9663;48.996;8.334;2023-05-07T07:15:13;100129.03;;;24.04
19061;BMP280;9663;48.996;8.334;2023-05-07T07:17:39;100141.72;;;24.08
19061;BMP280;9663;48.996;8.334;2023-05-07T07:20:05;100151.91;;;24.11
19061;BMP280;9663;48.996;8.334;2023-05-07T07:22:31;100165.22;;;24.19
19061;BMP280;9663;48.996;8.334;2023-05-07T07:24:57;100179.75;;;24.22
19061;BMP280;9663;48.996;8.334;2023-05-07T07:27:23;100173.56;;;24.24
19061;BMP280;9663;48.996;8.334;2023-05-07T07:29:48;100161.59;;;24.22
19061;BMP280;9663;48.996;8.334;2023-05-07T07:32:14;100155.03;;;24.16
19061;BMP280;9663;48.996;8.334;2023-05-07T07:34:40;100148.66;;;24.08
19061;BMP280;9663;48.996;8.334;2023-05-07T07:37:05;100150.88;;;24.00
19061;BMP280;9663;48.996;8.334;2023-05-07T07:39:35;100166.59;;;23.97
19061;BMP280;9663;48.996;8.334;2023-05-07T07:42:03;100183.06;;;23.96
19061;BMP280;9663;48.996;8.334;2023-05-07T07:44:28;100183.91;;;23.97
19061;BMP280;9663;48.996;8.334;2023-05-07T07:46:54;100169.66;;;24.03
19061;BMP280;9663;48.996;8.334;2023-05-07T07:49:20;100170.41;;;24.05
19061;BMP280;9663;48.996;8.334;2023-05-07T07:51:46;100175.13;;;24.13
19061;BMP280;9663;48.996;8.334;2023-05-07T07:54:12;100183.06;;;24.24
19061;BMP280;9663;48.996;8.334;2023-05-07T07:56:38;100192.53;;;24.39
19061;BMP280;9663;48.996;8.334;2023-05-07T07:59:03;100176.91;;;24.54
19061;BMP280;9663;48.996;8.334;2023-05-07T08:01:30;100179.53;;;24.66
19061;BMP280;9663;48.996;8.334;2023-05-07T08:03:56;100180.53;;;24.78
19061;BMP280;9663;48.996;8.334;2023-05-07T08:06:24;100174.56;;;24.89
19061;BMP280;9663;48.996;8.334;2023-05-07T08:08:51;100172.63;;;25.07
19061;BMP280;9663;48.996;8.334;2023-05-07T08:11:17;100173.06;;;25.26
19061;BMP280;9663;48.996;8.334;2023-05-07T08:13:43;100171.06;;;25.43
19061;BMP280;9663;48.996;8.334;2023-05-07T08:16:09;100167.25;;;25.61
19061;BMP280;9663;48.996;8.334;2023-05-07T08:18:36;100175.94;;;25.74
19061;BMP280;9663;48.996;8.334;2023-05-07T08:21:02;100178.72;;;25.83
19061;BMP280;9663;48.996;8.334;2023-05-07T08:23:27;100182.59;;;25.90
19061;BMP280;9663;48.996;8.334;2023-05-07T08:25:55;100175.00;;;25.87
19061;BMP280;9663;48.996;8.334;2023-05-07T08:28:20;100180.41;;;25.84
19061;BMP280;9663;48.996;8.334;2023-05-07T08:30:47;100181.97;;;25.86
19061;BMP280;9663;48.996;8.334;2023-05-07T08:33:13;100183.50;;;25.89
19061;BMP280;9663;48.996;8.334;2023-05-07T08:35:39;100180.53;;;25.95
19061;BMP280;9663;48.996;8.334;2023-05-07T08:38:04;100175.84;;;26.00
19061;BMP280;9663;48.996;8.334;2023-05-07T08:40:37;100186.97;;;26.02
19061;BMP280;9663;48.996;8.334;2023-05-07T08:43:05;100181.84;;;26.00
19061;BMP280;9663;48.996;8.334;2023-05-07T08:45:33;100173.13;;;26.01
19061;BMP280;9663;48.996;8.334;2023-05-07T08:48:03;100180.41;;;26.09
19061;BMP280;9663;48.996;8.334;2023-05-07T08:50:30;100184.03;;;26.19
19061;BMP280;9663;48.996;8.334;2023-05-07T08:52:56;100180.94;;;26.26
19061;BMP280;9663;48.996;8.334;2023-05-07T08:55:23;100178.00;;;26.30
19061;BMP280;9663;48.996;8.334;2023-05-07T08:57:50;100171.38;;;26.26
19061;BMP280;9663;48.996;8.334;2023-05-07T09:00:18;100170.56;;;26.26
19061;BMP280;9663;48.996;8.334;2023-05-07T09:02:43;100181.78;;;26.39
19061;BMP280;9663;48.996;8.334;2023-05-07T09:05:09;100176.75;;;26.48
19061;BMP280;9663;48.996;8.334;2023-05-07T09:07:35;100177.75;;;26.58
19061;BMP280;9663;48.996;8.334;2023-05-07T09:10:03;100178.66;;;26.69
19061;BMP280;9663;48.996;8.334;2023-05-07T09:12:30;100176.03;;;26.82
19061;BMP280;9663;48.996;8.334;2023-05-07T09:14:56;100177.06;;;26.92
19061;BMP280;9663;48.996;8.334;2023-05-07T09:17:22;100177.97;;;27.03
19061;BMP280;9663;48.996;8.334;2023-05-07T09:19:48;100167.72;;;27.12
19061;BMP280;9663;48.996;8.334;2023-05-07T09:22:14;100171.19;;;27.24
19061;BMP280;9663;48.996;8.334;2023-05-07T09:24:40;100173.47;;;27.28
19061;BMP280;9663;48.996;8.334;2023-05-07T09:27:08;100171.47;;;27.32
19061;BMP280;9663;48.996;8.334;2023-05-07T09:29:35;100173.41;;;27.41
19061;BMP280;9663;48.996;8.334;2023-05-07T09:32:04;100168.59;;;27.47
19061;BMP280;9663;48.996;8.334;2023-05-07T09:34:30;100161.97;;;27.54
19061;BMP280;9663;48.996;8.334;2023-05-07T09:36:59;100157.03;;;27.62
19061;BMP280;9663;48.996;8.334;2023-05-07T09:39:25;100169.97;;;27.74
19061;BMP280;9663;48.996;8.334;2023-05-07T09:41:51;100161.84;;;27.90
19061;BMP280;9663;48.996;8.334;2023-05-07T09:44:20;100158.28;;;28.01
19061;BMP280;9663;48.996;8.334;2023-05-07T09:46:54;100143.63;;;28.11
19061;BMP280;9663;48.996;8.334;2023-05-07T09:49:23;100157.25;;;28.26
19061;BMP280;9663;48.996;8.334;2023-05-07T09:51:51;100156.66;;;28.33
19061;BMP280;9663;48.996;8.334;2023-05-07T09:54:18;100154.50;;;28.38
19061;BMP280;9663;48.996;8.334;2023-05-07T09:56:45;100155.84;;;28.43
19061;BMP280;9663;48.996;8.334;2023-05-07T09:59:15;100146.69;;;28.49
19061;BMP280;9663;48.996;8.334;2023-05-07T10:01:43;100149.41;;;28.58
19061;BMP280;9663;48.996;8.334;2023-05-07T10:04:11;100156.66;;;28.66
19061;BMP280;9663;48.996;8.334;2023-05-07T10:06:37;100141.19;;;28.63
19061;BMP280;9663;48.996;8.334;2023-05-07T10:09:04;100143.09;;;28.61
19061;BMP280;9663;48.996;8.334;2023-05-07T10:11:34;100134.69;;;28.57
19061;BMP280;9663;48.996;8.334;2023-05-07T10:14:01;100124.97;;;28.59
19061;BMP280;9663;48.996;8.334;2023-05-07T10:16:32;100133.38;;;28.63
19061;BMP280;9663;48.996;8.334;2023-05-07T10:19:03;100134.31;;;28.73
19061;BMP280;9663;48.996;8.334;2023-05-07T10:21:37;100135.47;;;28.90
19061;BMP280;9663;48.996;8.334;2023-05-07T10:24:20;100139.19;;;29.08
19061;BMP280;9663;48.996;8.334;2023-05-07T10:26:51;100137.75;;;29.26
19061;BMP280;9663;48.996;8.334;2023-05-07T10:30:57;100134.03;;;29.28
19061;BMP280;9663;48.996;8.334;2023-05-07T10:32:58;100133.53;;;29.55
19061;BMP280;9663;48.996;8.334;2023-05-07T10:35:38;100130.88;;;29.66
19061;BMP280;9663;48.996;8.334;2023-05-07T10:38:06;100130.06;;;29.74
19061;BMP280;9663;48.996;8.334;2023-05-07T10:40:33;100122.13;;;29.76
19061;BMP280;9663;48.996;8.334;2023-05-07T10:43:02;100128.78;;;29.80
19061;BMP280;9663;48.996;8.334;2023-05-07T10:45:29;100126.03;;;29.81
19061;BMP280;9663;48.996;8.334;2023-05-07T10:48:15;100130.03;;;29.85
19061;BMP280;9663;48.996;8.334;2023-05-07T10:50:44;100125.19;;;30.01
19061;BMP280;9663;48.996;8.334;2023-05-07T10:53:22;100126.03;;;30.11
19061;BMP280;9663;48.996;8.334;2023-05-07T10:58:44;100118.94;;;30.61
19061;BMP280;9663;48.996;8.334;2023-05-07T11:01:10;100122.31;;;30.92
19061;BMP280;9663;48.996;8.334;2023-05-07T11:04:14;100108.25;;;31.21
19061;BMP280;9663;48.996;8.334;2023-05-07T11:06:41;100116.78;;;31.60
19061;BMP280;9663;48.996;8.334;2023-05-07T11:09:07;100105.81;;;31.84
19061;BMP280;9663;48.996;8.334;2023-05-07T11:11:50;100092.91;;;32.09
19061;BMP280;9663;48.996;8.334;2023-05-07T11:14:44;100095.44;;;32.28
19061;BMP280;9663;48.996;8.334;2023-05-07T11:17:11;100090.09;;;32.46
19061;BMP280;9663;48.996;8.334;2023-05-07T11:19:56;100093.28;;;32.50
19061;BMP280;9663;48.996;8.334;2023-05-07T11:25:03;100079.22;;;33.70
19061;BMP280;9663;48.996;8.334;2023-05-07T11:27:29;100091.34;;;34.71
19061;BMP280;9663;48.996;8.334;2023-05-07T11:29:55;100092.41;;;35.57
19061;BMP280;9663;48.996;8.334;2023-05-07T11:32:31;100079.41;;;36.17
19061;BMP280;9663;48.996;8.334;2023-05-07T11:35:00;100086.78;;;36.29
19061;BMP280;9663;48.996;8.334;2023-05-07T11:37:27;100091.81;;;36.47
19061;BMP280;9663;48.996;8.334;2023-05-07T11:40:08;100072.84;;;37.18
19061;BMP280;9663;48.996;8.334;2023-05-07T11:42:39;100072.44;;;38.08
19061;BMP280;9663;48.996;8.334;2023-05-07T11:45:07;100070.63;;;38.58
19061;BMP280;9663;48.996;8.334;2023-05-07T11:47:34;100077.03;;;38.70
19061;BMP280;9663;48.996;8.334;2023-05-07T11:50:07;100075.06;;;39.14
19061;BMP280;9663;48.996;8.334;2023-05-07T11:52:34;100068.06;;;39.88
19061;BMP280;9663;48.996;8.334;2023-05-07T11:55:02;100063.13;;;40.78
19061;BMP280;9663;48.996;8.334;2023-05-07T11:57:29;100060.72;;;41.09
19061;BMP280;9663;48.996;8.334;2023-05-07T11:59:59;100067.84;;;40.89
19061;BMP280;9663;48.996;8.334;2023-05-07T12:02:28;100072.94;;;40.25
19061;BMP280;9663;48.996;8.334;2023-05-07T12:04:54;100072.09;;;39.50
19061;BMP280;9663;48.996;8.334;2023-05-07T12:07:21;100074.94;;;39.01
19061;BMP280;9663;48.996;8.334;2023-05-07T12:09:47;100071.88;;;38.62
19061;BMP280;9663;48.996;8.334;2023-05-07T12:12:14;100074.78;;;38.67
19061;BMP280;9663;48.996;8.334;2023-05-07T12:14:44;100076.97;;;38.99
19061;BMP280;9663;48.996;8.334;2023-05-07T12:17:13;100062.03;;;39.39
19061;BMP280;9663;48.996;8.334;2023-05-07T12:19:41;100059.91;;;39.62
19061;BMP280;9663;48.996;8.334;2023-05-07T12:22:08;100064.72;;;39.46
19061;BMP280;9663;48.996;8.334;2023-05-07T12:24:49;100068.50;;;38.89
19061;BMP280;9663;48.996;8.334;2023-05-07T12:27:16;100059.94;;;38.38
19061;BMP280;9663;48.996;8.334;2023-05-07T12:29:51;100064.47;;;37.65
19061;BMP280;9663;48.996;8.334;2023-05-07T12:32:20;100071.19;;;36.95
19061;BMP280;9663;48.996;8.334;2023-05-07T12:34:49;100073.06;;;36.34
19061;BMP280;9663;48.996;8.334;2023-05-07T12:37:15;100073.75;;;35.82
19061;BMP280;9663;48.996;8.334;2023-05-07T12:39:48;100076.97;;;35.30
19061;BMP280;9663;48.996;8.334;2023-05-07T12:42:16;100081.38;;;34.90
19061;BMP280;9663;48.996;8.334;2023-05-07T12:44:46;100079.00;;;34.55
19061;BMP280;9663;48.996;8.334;2023-05-07T12:47:14;100085.78;;;34.33
19061;BMP280;9663;48.996;8.334;2023-05-07T12:49:41;100084.44;;;34.21
19061;BMP280;9663;48.996;8.334;2023-05-07T12:52:07;100083.25;;;34.08
19061;BMP280;9663;48.996;8.334;2023-05-07T12:54:37;100085.78;;;33.92
19061;BMP280;9663;48.996;8.334;2023-05-07T12:57:09;100083.41;;;33.81
19061;BMP280;9663;48.996;8.334;2023-05-07T12:59:42;100083.47;;;33.89
19061;BMP280;9663;48.996;8.334;2023-05-07T13:02:08;100082.53;;;33.98
19061;BMP280;9663;48.996;8.334;2023-05-07T13:04:35;100082.91;;;34.03
19061;BMP280;9663;48.996;8.334;2023-05-07T13:07:01;100082.06;;;34.02
19061;BMP280;9663;48.996;8.334;2023-05-07T13:09:28;100087.16;;;34.04
19061;BMP280;9663;48.996;8.334;2023-05-07T13:11:57;100082.44;;;34.07
19061;BMP280;9663;48.996;8.334;2023-05-07T13:14:25;100078.06;;;34.31
19061;BMP280;9663;48.996;8.334;2023-05-07T13:16:51;100085.00;;;34.97
19061;BMP280;9663;48.996;8.334;2023-05-07T13:19:16;100069.00;;;35.62
19061;BMP280;9663;48.996;8.334;2023-05-07T13:21:43;100065.19;;;36.18
19061;BMP280;9663;48.996;8.334;2023-05-07T13:24:08;100066.34;;;36.54
19061;BMP280;9663;48.996;8.334;2023-05-07T13:26:34;100065.22;;;36.48
19061;BMP280;9663;48.996;8.334;2023-05-07T13:29:00;100075.72;;;36.34
19061;BMP280;9663;48.996;8.334;2023-05-07T13:31:26;100062.03;;;36.30
19061;BMP280;9663;48.996;8.334;2023-05-07T13:33:51;100073.72;;;36.36
19061;BMP280;9663;48.996;8.334;2023-05-07T13:36:18;100075.91;;;36.25
19061;BMP280;9663;48.996;8.334;2023-05-07T13:38:43;100076.63;;;36.11
19061;BMP280;9663;48.996;8.334;2023-05-07T13:41:09;100073.66;;;36.06
19061;BMP280;9663;48.996;8.334;2023-05-07T13:43:35;100066.53;;;36.22
19061;BMP280;9663;48.996;8.334;2023-05-07T13:46:01;100070.66;;;36.55
19061;BMP280;9663;48.996;8.334;2023-05-07T13:48:27;100068.94;;;36.70
19061;BMP280;9663;48.996;8.334;2023-05-07T13:50:53;100073.88;;;36.73
19061;BMP280;9663;48.996;8.334;2023-05-07T13:53:19;100069.50;;;36.79
19061;BMP280;9663;48.996;8.334;2023-05-07T13:55:45;100066.75;;;36.73
19061;BMP280;9663;48.996;8.334;2023-05-07T13:58:11;100063.19;;;36.58
19061;BMP280;9663;48.996;8.334;2023-05-07T14:00:37;100063.50;;;36.33
19061;BMP280;9663;48.996;8.334;2023-05-07T14:03:04;100077.69;;;35.94
19061;BMP280;9663;48.996;8.334;2023-05-07T14:05:34;100088.81;;;35.42
19061;BMP280;9663;48.996;8.334;2023-05-07T14:08:01;100098.34;;;34.88
19061;BMP280;9663;48.996;8.334;2023-05-07T14:10:27;100100.34;;;34.37
19061;BMP280;9663;48.996;8.334;2023-05-07T14:12:53;100096.47;;;33.90
19061;BMP280;9663;48.996;8.334;2023-05-07T14:15:18;100105.03;;;33.42